Time;durP1;ratioP1;P1;durP2;ratioP2;P2;SDS_P1;SDS_P2;PMS_P1;PMS_P2;Temp;Humidity;BMP_temperature;BMP_pressure;BME280_temperature;BME280_humidity;BME280_pressure;Samples;Min_cycle;Max_cycle;Signal;HPM_P1;HPM_P2
2023/10/14 00:01:14;;;;;;;2.85;1.08;;;15.00;99.90;;;;;;5119946;28;20462;-69
2023/10/14 00:03:42;;;;;;;4.78;1.15;;;14.90;99.90;;;;;;5120340;28;20024;-67
2023/10/14 00:06:12;;;;;;;5.63;1.35;;;14.90;99.90;;;;;;5120188;28;20024;-67
2023/10/14 00:08:57;;;;;;;5.30;1.00;;;14.90;99.90;;;;;;5120267;28;20498;-68
2023/10/14 00:11:32;;;;;;;6.57;1.30;;;14.90;99.90;;;;;;5107168;28;20024;-68
2023/10/14 00:13:58;;;;;;;5.50;1.25;;;14.80;99.90;;;;;;5101534;28;20476;-68
2023/10/14 00:18:58;;;;;;;3.55;1.13;;;14.80;99.90;;;;;;5123594;27;20034;-67
2023/10/14 00:21:26;;;;;;;5.38;1.30;;;14.80;99.90;;;;;;5120058;28;20468;-68
2023/10/14 00:23:56;;;;;;;5.38;1.00;;;14.80;99.90;;;;;;5123555;27;20026;-68
2023/10/14 00:26:25;;;;;;;6.45;1.13;;;14.80;99.90;;;;;;5119777;27;20020;-68
2023/10/14 00:28:54;;;;;;;5.80;1.17;;;14.80;99.90;;;;;;5122604;27;20016;-68
2023/10/14 00:31:22;;;;;;;9.38;1.50;;;14.80;99.90;;;;;;5129090;27;20019;-68
2023/10/14 00:33:48;;;;;;;5.78;1.35;;;14.80;99.90;;;;;;5124040;27;20011;-68
2023/10/14 00:36:16;;;;;;;4.60;1.10;;;14.80;99.90;;;;;;5128181;27;20446;-68
2023/10/14 00:38:45;;;;;;;7.53;1.40;;;14.80;99.90;;;;;;5120275;27;20024;-68
2023/10/14 00:41:14;;;;;;;6.95;1.17;;;14.80;99.90;;;;;;5116079;27;20097;-68
2023/10/14 00:43:39;;;;;;;6.45;1.45;;;14.80;99.90;;;;;;5100473;28;20028;-68
2023/10/14 00:46:16;;;;;;;6.97;1.50;;;14.80;99.90;;;;;;5124333;27;20026;-68
2023/10/14 00:48:46;;;;;;;5.97;1.17;;;14.80;99.90;;;;;;5119578;28;20016;-68
2023/10/14 00:51:19;;;;;;;5.10;1.20;;;14.80;99.90;;;;;;5119508;28;20020;-68
2023/10/14 00:54:05;;;;;;;6.10;1.27;;;14.80;99.90;;;;;;5101130;28;20111;-67
2023/10/14 00:56:31;;;;;;;5.78;1.20;;;14.90;99.90;;;;;;5118862;28;20039;-68
2023/10/14 00:58:59;;;;;;;4.65;1.10;;;14.90;99.90;;;;;;5119262;28;20011;-67
2023/10/14 01:01:32;;;;;;;5.57;1.20;;;14.80;99.90;;;;;;5100391;28;20499;-67
2023/10/14 01:09:31;;;;;;;5.07;1.00;;;14.70;99.90;;;;;;5119310;28;20032;-68
2023/10/14 01:11:58;;;;;;;4.05;1.13;;;14.80;99.90;;;;;;5118928;28;20054;-68
2023/10/14 01:14:24;;;;;;;4.10;1.10;;;14.80;99.90;;;;;;5118778;28;20020;-68
2023/10/14 01:16:49;;;;;;;3.70;1.00;;;14.80;99.90;;;;;;5118759;28;20016;-68
2023/10/14 01:19:21;;;;;;;5.10;1.05;;;14.70;99.90;;;;;;5118957;28;20030;-67
2023/10/14 01:21:51;;;;;;;5.18;1.17;;;14.70;99.90;;;;;;5118740;28;20020;-67
2023/10/14 01:24:17;;;;;;;4.65;1.00;;;14.70;99.90;;;;;;5118474;28;20084;-67
2023/10/14 01:27:05;;;;;;;5.90;1.20;;;14.70;99.90;;;;;;5117283;28;20110;-67
2023/10/14 01:29:31;;;;;;;6.05;1.30;;;14.60;99.90;;;;;;5117412;28;20028;-68
2023/10/14 01:32:23;;;;;;;6.72;1.10;;;14.60;99.90;;;;;;5117998;28;20018;-67
2023/10/14 01:34:55;;;;;;;3.70;1.20;;;14.70;99.90;;;;;;5117200;28;20024;-68
2023/10/14 01:37:25;;;;;;;5.45;1.17;;;14.60;99.90;;;;;;5118639;28;20510;-67
2023/10/14 01:39:56;;;;;;;4.88;1.08;;;14.50;99.90;;;;;;5118287;28;20045;-68
2023/10/14 01:42:23;;;;;;;7.85;1.20;;;14.40;99.90;;;;;;5118147;28;20503;-67
2023/10/14 01:44:53;;;;;;;6.10;1.05;;;14.30;99.90;;;;;;5118249;28;20054;-68
2023/10/14 01:47:20;;;;;;;6.20;0.93;;;14.30;99.90;;;;;;5118297;28;20023;-68
2023/10/14 01:49:46;;;;;;;5.82;0.90;;;14.20;99.90;;;;;;5099765;28;20620;-68
2023/10/14 01:52:15;;;;;;;7.45;1.27;;;14.20;99.90;;;;;;5118382;28;20023;-68
2023/10/14 01:54:41;;;;;;;4.85;1.00;;;14.10;99.90;;;;;;5118283;28;20016;-68
2023/10/14 01:57:15;;;;;;;5.38;1.10;;;14.10;99.90;;;;;;5118211;28;20049;-68
2023/10/14 01:59:43;;;;;;;5.65;1.08;;;14.10;99.90;;;;;;5117835;28;20169;-68
2023/10/14 02:02:09;;;;;;;4.35;1.20;;;14.00;99.90;;;;;;5099497;28;20522;-67
2023/10/14 02:04:36;;;;;;;4.18;1.00;;;14.00;99.90;;;;;;5118072;28;20444;-67
2023/10/14 02:07:21;;;;;;;3.80;0.90;;;13.90;99.90;;;;;;5118243;28;20024;-67
2023/10/14 02:09:48;;;;;;;4.60;1.00;;;13.90;99.90;;;;;;5117991;28;20099;-67
2023/10/14 02:12:15;;;;;;;5.40;1.20;;;13.90;99.90;;;;;;5117984;28;20019;-67
2023/10/14 02:14:56;;;;;;;5.20;0.90;;;13.90;99.90;;;;;;5117807;28;20011;-68
2023/10/14 02:17:23;;;;;;;4.70;1.00;;;13.90;99.90;;;;;;5117585;28;20035;-68
2023/10/14 02:19:51;;;;;;;4.63;0.93;;;14.00;99.90;;;;;;5118049;28;20020;-68
2023/10/14 02:22:21;;;;;;;4.20;1.55;;;14.00;99.90;;;;;;5117078;28;20019;-68
2023/10/14 02:24:48;;;;;;;3.28;0.75;;;14.00;99.90;;;;;;5107816;28;20023;-68
2023/10/14 02:27:14;;;;;;;5.35;1.20;;;14.00;99.90;;;;;;5117866;28;20102;-68
2023/10/14 02:29:45;;;;;;;5.35;0.85;;;14.00;99.90;;;;;;5117811;28;20027;-69
2023/10/14 02:32:12;;;;;;;7.63;1.00;;;13.90;99.90;;;;;;5117472;28;20024;-68
2023/10/14 02:34:44;;;;;;;6.15;1.25;;;13.90;99.90;;;;;;5117554;28;20023;-68
2023/10/14 02:37:13;;;;;;;5.75;1.23;;;13.90;99.90;;;;;;5117508;28;20024;-68
2023/10/14 02:39:42;;;;;;;5.78;1.17;;;13.90;99.90;;;;;;5117602;28;20015;-68
2023/10/14 02:42:08;;;;;;;6.55;1.10;;;13.90;99.90;;;;;;5117603;28;20098;-68
2023/10/14 02:44:52;;;;;;;5.65;1.15;;;13.80;99.90;;;;;;5121742;28;20080;-68
2023/10/14 02:47:19;;;;;;;;;;;13.80;99.90;;;;;;5122129;28;20047;-67
2023/10/14 02:49:53;;;;;;;3.53;0.80;;;13.80;99.90;;;;;;5121499;28;20002;-68
2023/10/14 02:52:20;;;;;;;5.15;1.30;;;13.70;99.90;;;;;;5103418;28;20035;-67
2023/10/14 02:55:19;;;;;;;4.93;1.00;;;13.60;99.90;;;;;;5103122;28;20110;-67
2023/10/14 02:57:42;;;;;;;5.20;1.08;;;13.60;99.90;;;;;;5121339;28;20430;-68
2023/10/14 03:00:11;;;;;;;3.05;0.93;;;13.50;99.90;;;;;;5121680;28;20153;-68
2023/10/14 03:02:54;;;;;;;4.82;0.90;;;13.50;99.90;;;;;;5121017;28;20475;-68
2023/10/14 03:05:32;;;;;;;5.10;1.10;;;13.50;99.90;;;;;;5121646;28;20027;-68
2023/10/14 03:08:07;;;;;;;1.42;0.80;;;13.50;99.90;;;;;;5121430;28;20091;-68
2023/10/14 03:10:39;;;;;;;4.72;1.02;;;13.60;99.90;;;;;;5134828;27;20027;-68
2023/10/14 03:13:11;;;;;;;6.53;1.08;;;13.60;99.90;;;;;;5121446;28;20080;-68
2023/10/14 03:15:38;;;;;;;4.65;1.10;;;13.60;99.90;;;;;;5120944;28;20046;-68
2023/10/14 03:18:05;;;;;;;3.83;0.77;;;13.60;99.90;;;;;;5121164;28;20023;-69
2023/10/14 03:20:36;;;;;;;6.80;1.20;;;13.60;99.90;;;;;;5120830;28;20031;-69
2023/10/14 03:25:39;;;;;;;5.00;0.90;;;13.70;99.90;;;;;;5120969;28;20095;-68
2023/10/14 03:30:40;;;;;;;5.15;1.10;;;13.70;99.90;;;;;;5120832;28;20467;-68
2023/10/14 03:33:10;;;;;;;9.00;1.05;;;13.70;99.90;;;;;;5121108;28;20055;-68
2023/10/14 03:35:41;;;;;;;4.50;0.90;;;13.70;99.90;;;;;;5121015;28;20061;-68
2023/10/14 03:38:15;;;;;;;4.80;1.40;;;13.70;99.90;;;;;;5120820;28;20463;-68
2023/10/14 03:43:15;;;;;;;4.07;1.00;;;13.70;99.90;;;;;;5120585;28;20026;-68
2023/10/14 03:45:56;;;;;;;4.78;0.90;;;13.70;99.90;;;;;;5120671;28;20051;-68
2023/10/14 03:48:34;;;;;;;6.65;1.00;;;13.70;99.90;;;;;;5120459;28;20488;-68
2023/10/14 03:51:03;;;;;;;3.85;0.93;;;13.70;99.90;;;;;;5120807;28;20023;-68
2023/10/14 03:53:32;;;;;;;5.25;1.20;;;13.70;99.90;;;;;;5102318;28;20023;-67
2023/10/14 03:56:00;;;;;;;5.05;1.20;;;13.70;99.90;;;;;;5120330;28;20507;-68
2023/10/14 03:58:29;;;;;;;5.40;1.00;;;13.70;99.90;;;;;;5120260;28;20042;-68
2023/10/14 04:00:56;;;;;;;5.43;1.00;;;13.80;99.90;;;;;;5120176;28;20075;-67
2023/10/14 04:03:40;;;;;;;4.28;0.95;;;13.80;99.90;;;;;;5120331;28;20503;-67
2023/10/14 04:06:09;;;;;;;3.38;0.88;;;13.80;99.90;;;;;;5120398;28;20519;-67
2023/10/14 04:08:51;;;;;;;6.32;1.33;;;13.80;99.90;;;;;;5120241;28;20027;-68
2023/10/14 04:11:25;;;;;;;4.20;1.00;;;13.80;99.90;;;;;;5120433;27;20043;-68
2023/10/14 04:13:58;;;;;;;4.68;0.90;;;13.80;99.90;;;;;;5120142;28;20507;-68
2023/10/14 04:16:28;;;;;;;;;;;13.80;99.90;;;;;;5120243;28;20015;-68
2023/10/14 04:18:59;;;;;;;6.15;1.05;;;13.80;99.90;;;;;;5101699;28;19910;-68
2023/10/14 04:21:35;;;;;;;4.00;1.25;;;13.80;99.90;;;;;;5120194;28;20028;-69
2023/10/14 04:24:12;;;;;;;2.60;0.60;;;13.80;99.90;;;;;;5102341;28;20408;-69
2023/10/14 04:26:41;;;;;;;3.47;0.80;;;13.80;99.90;;;;;;5118888;28;20023;-68
2023/10/14 04:29:16;;;;;;;4.60;0.98;;;13.90;99.90;;;;;;5118394;28;20392;-68
2023/10/14 04:31:41;;;;;;;4.15;0.55;;;13.90;99.90;;;;;;5108898;28;20030;-67
2023/10/14 04:34:10;;;;;;;4.13;0.88;;;13.90;99.90;;;;;;5119048;28;20023;-67
2023/10/14 04:36:36;;;;;;;3.67;1.20;;;13.90;99.90;;;;;;5118683;28;20570;-68
2023/10/14 04:41:46;;;;;;;3.42;1.00;;;13.90;99.90;;;;;;5118430;28;20027;-68
2023/10/14 04:44:12;;;;;;;3.47;0.77;;;13.90;99.90;;;;;;5119368;28;20162;-68
2023/10/14 04:46:54;;;;;;;4.47;0.80;;;13.90;99.90;;;;;;5119066;28;20048;-68
2023/10/14 04:49:29;;;;;;;3.53;0.98;;;13.90;99.90;;;;;;5119497;28;20068;-68
2023/10/14 04:51:58;;;;;;;2.83;0.70;;;13.90;99.90;;;;;;5101185;28;20476;-67
2023/10/14 04:54:25;;;;;;;4.20;0.90;;;13.90;99.90;;;;;;5100956;28;20064;-68
2023/10/14 04:56:57;;;;;;;4.63;0.77;;;13.90;99.90;;;;;;5119316;28;20023;-68
2023/10/14 04:59:24;;;;;;;3.50;1.00;;;13.90;99.90;;;;;;5119014;28;20392;-68
2023/10/14 05:01:51;;;;;;;3.67;0.77;;;13.90;99.90;;;;;;5119233;28;20070;-67
2023/10/14 05:04:20;;;;;;;4.60;1.00;;;13.90;99.50;;;;;;5118531;28;20032;-69
2023/10/14 05:06:52;;;;;;;3.70;1.00;;;13.80;99.50;;;;;;5118601;28;20081;-69
2023/10/14 05:09:30;;;;;;;4.00;1.10;;;13.80;99.90;;;;;;5122492;27;20018;-69
2023/10/14 05:11:56;;;;;;;5.22;1.02;;;13.80;99.30;;;;;;5127034;27;20027;-69
2023/10/14 05:14:33;;;;;;;3.88;0.90;;;13.80;99.90;;;;;;5118682;28;20031;-68
2023/10/14 05:17:05;;;;;;;4.90;1.00;;;13.80;98.90;;;;;;5118716;28;20024;-69
2023/10/14 05:19:36;;;;;;;2.35;0.70;;;13.80;98.20;;;;;;5119068;28;20391;-68
2023/10/14 05:22:10;;;;;;;4.55;0.80;;;13.80;99.30;;;;;;5118836;28;20114;-68
2023/10/14 05:24:36;;;;;;;7.38;1.05;;;13.80;98.50;;;;;;5118605;28;20024;-68
2023/10/14 05:27:02;;;;;;;6.28;0.95;;;13.70;98.20;;;;;;5118695;28;20434;-69
2023/10/14 05:29:29;;;;;;;2.78;0.85;;;13.70;98.40;;;;;;5118820;28;20020;-68
2023/10/14 05:32:15;;;;;;;3.58;0.70;;;13.70;98.60;;;;;;5118359;28;20475;-68
2023/10/14 05:34:43;;;;;;;5.13;0.77;;;13.70;98.60;;;;;;5118620;28;20051;-70
2023/10/14 05:37:11;;;;;;;3.95;0.80;;;13.70;98.20;;;;;;5118462;28;20016;-68
2023/10/14 05:39:38;;;;;;;5.18;1.00;;;13.70;98.20;;;;;;5118385;28;20051;-68
2023/10/14 05:42:15;;;;;;;4.03;0.70;;;13.70;97.20;;;;;;5118189;28;20445;-68
2023/10/14 05:44:46;;;;;;;4.38;0.80;;;13.70;98.30;;;;;;5099851;28;20049;-68
2023/10/14 05:47:13;;;;;;;4.70;0.80;;;13.60;97.50;;;;;;5118319;28;20027;-68
2023/10/14 05:49:38;;;;;;;5.93;0.95;;;13.70;97.30;;;;;;5118132;28;20019;-69
2023/10/14 05:52:04;;;;;;;3.67;1.00;;;13.70;97.00;;;;;;5118400;28;20031;-68
2023/10/14 05:54:30;;;;;;;4.97;1.25;;;13.70;97.70;;;;;;5118201;28;20462;-69
2023/10/14 05:56:55;;;;;;;2.55;0.90;;;13.70;97.10;;;;;;5099830;28;20023;-68
2023/10/14 05:59:21;;;;;;;4.53;0.93;;;13.60;97.00;;;;;;5117957;28;20027;-69
2023/10/14 06:01:47;;;;;;;4.88;0.80;;;13.60;97.20;;;;;;5118103;28;20534;-68
2023/10/14 06:04:15;;;;;;;4.82;1.15;;;13.60;97.00;;;;;;5118153;28;20085;-69
2023/10/14 06:06:41;;;;;;;2.95;0.80;;;13.60;96.30;;;;;;5099889;28;20023;-69
2023/10/14 06:09:09;;;;;;;3.05;0.70;;;13.60;96.70;;;;;;5118065;28;20111;-68
2023/10/14 06:11:35;;;;;;;3.38;0.90;;;13.60;96.10;;;;;;5099683;28;20056;-68
2023/10/14 06:14:03;;;;;;;4.07;0.70;;;13.60;96.90;;;;;;5118025;28;20023;-68
2023/10/14 06:16:31;;;;;;;3.45;0.88;;;13.60;97.00;;;;;;5117326;28;20031;-69
2023/10/14 06:18:57;;;;;;;2.13;0.75;;;13.60;97.20;;;;;;5117565;28;20031;-68
2023/10/14 06:21:27;;;;;;;4.43;0.80;;;13.60;97.00;;;;;;5099155;28;20041;-69
2023/10/14 06:23:56;;;;;;;3.25;1.00;;;13.60;97.50;;;;;;5117670;28;20392;-69
2023/10/14 06:26:21;;;;;;;6.53;0.88;;;13.50;97.50;;;;;;5117613;28;20099;-69
2023/10/14 06:28:49;;;;;;;6.53;0.88;;;13.50;97.40;;;;;;5117740;28;20054;-69
2023/10/14 06:31:18;;;;;;;8.35;0.88;;;13.50;97.80;;;;;;5117585;28;20027;-69
2023/10/14 06:33:45;;;;;;;5.63;0.98;;;13.50;97.30;;;;;;5117604;28;20043;-69
2023/10/14 06:36:14;;;;;;;5.03;0.80;;;13.50;97.40;;;;;;5117759;28;20055;-69
2023/10/14 06:38:46;;;;;;;4.70;1.10;;;13.50;98.00;;;;;;5099261;28;20117;-68
2023/10/14 06:41:16;;;;;;;3.08;0.80;;;13.60;97.60;;;;;;5117274;28;20034;-68
2023/10/14 06:43:43;;;;;;;4.97;0.90;;;13.60;97.80;;;;;;5099370;28;20034;-67
2023/10/14 06:46:11;;;;;;;4.03;0.93;;;13.60;97.80;;;;;;5117384;28;20022;-67
2023/10/14 06:48:41;;;;;;;3.47;0.95;;;13.60;98.10;;;;;;5117428;28;20022;-67
2023/10/14 06:51:09;;;;;;;4.43;0.90;;;13.60;97.60;;;;;;5117603;28;20028;-68
2023/10/14 06:53:35;;;;;;;4.75;0.90;;;13.60;97.80;;;;;;5117884;28;20079;-68
2023/10/14 06:56:01;;;;;;;4.05;0.75;;;13.60;97.40;;;;;;5117266;28;20453;-68
2023/10/14 06:58:28;;;;;;;5.60;0.88;;;13.60;97.70;;;;;;5117310;28;20153;-68
2023/10/14 07:00:57;;;;;;;4.38;0.70;;;13.60;98.10;;;;;;5117046;28;20055;-68
2023/10/14 07:03:22;;;;;;;4.38;1.00;;;13.70;98.10;;;;;;5117476;28;20361;-68
2023/10/14 07:05:50;;;;;;;4.00;0.80;;;13.70;97.60;;;;;;5117430;28;20081;-68
2023/10/14 07:08:19;;;;;;;4.43;0.80;;;13.70;97.90;;;;;;5117534;28;20016;-67
2023/10/14 07:10:47;;;;;;;5.60;1.17;;;13.70;97.30;;;;;;5117421;28;20027;-68
2023/10/14 07:13:13;;;;;;;3.08;0.75;;;13.70;97.30;;;;;;5099241;28;20506;-68
2023/10/14 07:15:41;;;;;;;3.88;1.02;;;13.80;97.40;;;;;;5117099;28;20107;-68
2023/10/14 07:18:08;;;;;;;2.08;0.70;;;13.80;97.50;;;;;;5117493;28;20440;-68
2023/10/14 07:20:34;;;;;;;5.97;1.10;;;13.80;96.70;;;;;;5116407;28;20522;-67
2023/10/14 07:23:02;;;;;;;2.25;0.70;;;13.80;96.90;;;;;;5116806;28;20480;-69
2023/10/14 07:25:36;;;;;;;3.63;0.98;;;13.90;97.30;;;;;;5117154;28;20055;-67
2023/10/14 07:28:07;;;;;;;2.92;0.70;;;13.90;97.00;;;;;;5117436;28;20016;-67
2023/10/14 07:30:35;;;;;;;4.70;0.75;;;13.90;96.60;;;;;;5120617;28;20069;-67
2023/10/14 07:33:05;;;;;;;5.43;0.90;;;13.90;96.30;;;;;;5121037;28;20099;-67
2023/10/14 07:35:31;;;;;;;5.00;0.82;;;13.90;95.90;;;;;;5119684;28;20033;-67
2023/10/14 07:37:58;;;;;;;3.42;0.70;;;14.00;96.30;;;;;;5121288;28;20110;-67
2023/10/14 07:40:24;;;;;;;3.42;0.82;;;14.00;95.80;;;;;;5120586;28;20047;-69
2023/10/14 07:42:56;;;;;;;4.93;0.98;;;14.00;95.50;;;;;;5120523;28;20088;-69
2023/10/14 07:45:28;;;;;;;2.65;0.70;;;14.10;95.30;;;;;;5120691;28;20028;-67
2023/10/14 07:47:57;;;;;;;3.67;0.88;;;14.00;95.40;;;;;;5120700;28;20026;-68
2023/10/14 07:50:24;;;;;;;5.68;0.93;;;14.00;94.80;;;;;;5102408;28;20020;-68
2023/10/14 07:52:54;;;;;;;4.70;0.90;;;14.10;95.10;;;;;;5120567;28;20041;-68
2023/10/14 07:55:25;;;;;;;5.03;1.00;;;14.10;95.30;;;;;;5120597;28;20030;-68
2023/10/14 07:57:51;;;;;;;5.00;1.10;;;14.10;94.20;;;;;;5120357;28;20034;-68
2023/10/14 08:00:17;;;;;;;4.90;1.00;;;14.10;94.90;;;;;;5120358;28;20086;-67
2023/10/14 08:02:43;;;;;;;4.13;0.98;;;14.10;95.30;;;;;;5120138;28;20035;-68
2023/10/14 08:05:10;;;;;;;5.95;1.05;;;14.10;95.30;;;;;;5102022;28;20016;-68
2023/10/14 08:07:44;;;;;;;7.63;1.17;;;14.20;95.50;;;;;;5120131;28;20028;-68
2023/10/14 08:10:17;;;;;;;4.82;0.85;;;14.20;95.40;;;;;;5131224;27;20045;-68
2023/10/14 08:12:47;;;;;;;4.73;0.87;;;14.20;95.30;;;;;;5103409;28;20028;-68
2023/10/14 08:15:17;;;;;;;5.13;1.02;;;14.20;95.50;;;;;;5120202;28;20257;-72
2023/10/14 08:17:44;;;;;;;4.70;1.00;;;14.20;94.90;;;;;;5120336;28;20518;-72
2023/10/14 08:20:13;;;;;;;3.90;0.80;;;14.20;95.30;;;;;;5120173;28;20062;-72
2023/10/14 08:22:41;;;;;;;2.85;0.95;;;14.10;94.70;;;;;;5119687;28;20399;-73
2023/10/14 08:25:07;;;;;;;4.65;1.08;;;14.10;95.30;;;;;;5119856;28;20061;-72
2023/10/14 08:27:34;;;;;;;5.57;1.23;;;14.00;95.20;;;;;;5118812;28;20031;-73
2023/10/14 08:30:00;;;;;;;4.15;0.90;;;13.90;95.70;;;;;;5119912;28;20019;-72
2023/10/14 08:32:27;;;;;;;6.55;1.23;;;13.90;96.00;;;;;;5118252;28;20024;-75
2023/10/14 08:34:53;;;;;;;6.22;1.15;;;13.80;95.60;;;;;;5119735;28;20027;-75
2023/10/14 08:37:18;;;;;;;5.38;0.82;;;13.80;96.60;;;;;;5118770;28;20032;-75
2023/10/14 08:39:44;;;;;;;6.20;1.10;;;13.80;96.40;;;;;;5118985;28;20020;-76
2023/10/14 08:42:10;;;;;;;6.50;1.17;;;13.90;97.00;;;;;;5119102;28;20016;-75
2023/10/14 08:44:44;;;;;;;3.80;1.10;;;14.00;96.90;;;;;;5119465;28;20027;-76
2023/10/14 08:47:13;;;;;;;5.40;0.82;;;14.00;97.20;;;;;;5119295;28;20540;-76
2023/10/14 08:49:41;;;;;;;7.65;1.17;;;14.10;96.90;;;;;;5119334;28;20019;-76
2023/10/14 08:52:09;;;;;;;6.50;1.05;;;14.20;96.30;;;;;;5119747;28;20024;-74
2023/10/14 08:54:37;;;;;;;7.13;1.10;;;14.20;95.90;;;;;;5118916;28;20028;-75
2023/10/14 08:57:03;;;;;;;3.67;0.88;;;14.30;96.40;;;;;;5119721;28;20028;-74
2023/10/14 08:59:29;;;;;;;4.95;1.00;;;14.40;95.30;;;;;;5100640;28;20050;-74
2023/10/14 09:01:56;;;;;;;3.80;1.20;;;14.50;95.60;;;;;;5119170;28;20391;-72
2023/10/14 09:04:31;;;;;;;4.97;0.98;;;14.50;94.50;;;;;;5100572;28;21543;-73
2023/10/14 09:07:04;;;;;;;3.95;0.88;;;14.50;94.30;;;;;;5118351;28;20039;-71
2023/10/14 09:09:32;;;;;;;3.67;0.80;;;14.40;95.10;;;;;;5118742;28;20027;-70
2023/10/14 09:12:12;;;;;;;4.88;1.02;;;14.50;95.30;;;;;;5118906;28;20098;-72
2023/10/14 09:14:39;;;;;;;6.85;1.17;;;14.50;95.70;;;;;;5118952;28;20063;-70
2023/10/14 09:17:10;;;;;;;6.10;0.80;;;14.60;94.90;;;;;;5118709;28;20024;-71
2023/10/14 09:19:47;;;;;;;3.17;0.98;;;14.70;94.90;;;;;;5119012;28;20103;-69
2023/10/14 09:22:27;;;;;;;5.20;1.10;;;14.70;94.40;;;;;;5100425;28;20019;-70
2023/10/14 09:24:59;;;;;;;4.53;1.05;;;14.80;94.70;;;;;;5110247;28;20031;-71
2023/10/14 09:27:31;;;;;;;5.28;1.15;;;14.90;94.90;;;;;;5118593;28;20027;-69
2023/10/14 09:29:57;;;;;;;4.18;0.70;;;14.90;95.10;;;;;;5118983;28;20031;-72
2023/10/14 09:32:24;;;;;;;3.53;0.95;;;15.00;94.60;;;;;;5118420;28;20024;-73
2023/10/14 09:34:51;;;;;;;6.07;0.82;;;15.00;94.40;;;;;;5118620;28;20022;-70
2023/10/14 09:37:17;;;;;;;2.65;0.68;;;15.00;92.40;;;;;;5118166;28;20691;-71
2023/10/14 09:39:48;;;;;;;3.83;0.80;;;15.00;92.40;;;;;;5117035;28;20023;-70
2023/10/14 09:42:18;;;;;;;5.18;0.80;;;15.00;92.20;;;;;;5111474;28;20019;-70
2023/10/14 09:44:45;;;;;;;2.90;0.70;;;15.10;91.80;;;;;;5117268;28;20015;-71
2023/10/14 09:47:19;;;;;;;2.50;0.80;;;15.20;92.20;;;;;;5098504;28;20019;-71
2023/10/14 09:49:47;;;;;;;2.95;0.73;;;15.40;91.50;;;;;;5118212;28;20023;-71
2023/10/14 09:52:14;;;;;;;5.75;1.10;;;15.50;88.90;;;;;;5118244;28;20093;-71
2023/10/14 09:54:41;;;;;;;6.70;0.80;;;15.60;88.80;;;;;;5117697;28;20098;-71
2023/10/14 09:57:12;;;;;;;3.67;0.80;;;15.70;87.10;;;;;;5116894;28;20042;-71
2023/10/14 09:59:42;;;;;;;2.15;0.60;;;15.80;86.40;;;;;;5118024;28;20047;-71
2023/10/14 10:02:09;;;;;;;5.03;1.10;;;16.10;84.30;;;;;;5116842;28;20395;-71
2023/10/14 10:04:40;;;;;;;5.22;0.95;;;16.20;83.80;;;;;;5116094;28;20036;-71
2023/10/14 10:07:41;;;;;;;5.70;0.88;;;16.30;81.80;;;;;;5099602;28;20047;-71
2023/10/14 10:10:14;;;;;;;3.80;1.10;;;16.30;80.30;;;;;;5108254;28;20015;-71
2023/10/14 10:12:42;;;;;;;5.50;0.85;;;16.30;80.00;;;;;;5116702;28;20535;-71
2023/10/14 10:15:08;;;;;;;3.17;0.88;;;16.30;82.00;;;;;;5117627;28;20024;-70
2023/10/14 10:17:37;;;;;;;4.22;1.00;;;16.30;77.00;;;;;;5117709;28;20023;-71
2023/10/14 10:20:10;;;;;;;4.75;1.00;;;16.30;79.80;;;;;;5118003;28;20024;-71
2023/10/14 10:22:41;;;;;;;3.40;0.80;;;16.30;79.20;;;;;;5117697;28;20020;-71
2023/10/14 10:25:09;;;;;;;3.45;0.88;;;16.30;81.30;;;;;;5117889;28;20476;-71
2023/10/14 10:27:36;;;;;;;3.97;1.02;;;16.20;79.30;;;;;;5117431;28;20027;-70
2023/10/14 10:30:11;;;;;;;2.63;0.75;;;16.00;78.10;;;;;;5117702;28;20490;-71
2023/10/14 10:32:38;;;;;;;5.25;1.02;;;15.90;79.60;;;;;;5116350;28;20031;-72
2023/10/14 10:35:06;;;;;;;3.92;0.80;;;15.90;80.50;;;;;;5117620;28;20047;-72
2023/10/14 10:37:39;;;;;;;4.07;0.90;;;15.90;81.20;;;;;;5117724;28;20027;-71
2023/10/14 10:40:10;;;;;;;4.93;0.73;;;15.90;79.80;;;;;;5117468;28;20508;-72
2023/10/14 10:42:45;;;;;;;4.53;0.80;;;15.90;80.90;;;;;;5117614;28;20023;-71
2023/10/14 10:45:21;;;;;;;4.13;0.80;;;15.90;80.00;;;;;;5098956;28;20400;-71
2023/10/14 10:47:55;;;;;;;2.58;0.80;;;16.00;78.60;;;;;;5116930;28;20034;-72
2023/10/14 10:50:27;;;;;;;5.32;0.85;;;16.20;78.30;;;;;;5115400;28;20443;-71
2023/10/14 10:53:09;;;;;;;3.13;0.93;;;16.30;73.70;;;;;;5099201;28;20032;-71
2023/10/14 10:55:41;;;;;;;3.35;0.82;;;16.40;73.00;;;;;;5099146;28;20114;-71
2023/10/14 10:58:13;;;;;;;2.50;0.68;;;16.70;75.20;;;;;;5117438;28;20460;-70
2023/10/14 11:00:46;;;;;;;3.10;0.60;;;16.70;71.60;;;;;;5098125;28;20582;-72
2023/10/14 11:03:16;;;;;;;3.70;0.93;;;16.70;72.40;;;;;;5099192;28;20119;-76
2023/10/14 11:05:47;;;;;;;1.75;0.60;;;16.50;72.70;;;;;;5121533;28;20092;-76
2023/10/14 11:08:15;;;;;;;3.95;0.80;;;16.60;74.10;;;;;;5103238;28;20012;-75
2023/10/14 11:10:45;;;;;;;4.68;0.80;;;16.50;74.30;;;;;;5121481;28;20023;-75
2023/10/14 11:13:12;;;;;;;2.60;0.70;;;16.50;73.40;;;;;;5121390;28;20030;-75
2023/10/14 11:15:39;;;;;;;2.72;0.70;;;16.40;74.40;;;;;;5121279;28;20042;-75
2023/10/14 11:18:06;;;;;;;5.22;0.82;;;16.40;75.90;;;;;;5103487;28;20088;-75
2023/10/14 11:20:35;;;;;;;2.47;0.80;;;16.40;75.90;;;;;;5121247;28;20034;-75
2023/10/14 11:23:03;;;;;;;1.98;0.55;;;16.40;75.60;;;;;;5121356;28;20024;-75
2023/10/14 11:25:35;;;;;;;5.05;1.02;;;16.40;75.60;;;;;;5120585;28;20020;-74
2023/10/14 11:28:01;;;;;;;2.95;0.70;;;16.40;72.40;;;;;;5121287;28;20020;-78
2023/10/14 11:30:27;;;;;;;2.83;0.60;;;16.60;71.80;;;;;;5102391;28;20119;-77
2023/10/14 11:32:53;;;;;;;2.97;0.75;;;16.80;70.70;;;;;;5102863;28;20027;-76
2023/10/14 11:35:21;;;;;;;4.18;0.75;;;16.90;72.30;;;;;;5120889;28;20102;-75
2023/10/14 11:38:01;;;;;;;1.42;0.55;;;17.10;70.00;;;;;;5121147;28;20034;-77
2023/10/14 11:40:37;;;;;;;2.78;0.50;;;17.10;69.10;;;;;;5102735;28;20031;-74
2023/10/14 11:43:04;;;;;;;4.03;0.60;;;17.00;70.20;;;;;;5096625;28;20027;-75
2023/10/14 11:45:31;;;;;;;3.13;0.70;;;17.10;68.90;;;;;;5102403;28;20031;-75
2023/10/14 11:48:00;;;;;;;2.83;0.77;;;17.30;69.50;;;;;;5102399;28;20392;-75
2023/10/14 11:50:26;;;;;;;2.88;0.43;;;17.20;65.80;;;;;;5100706;28;20023;-71
2023/10/14 11:52:57;;;;;;;1.70;0.60;;;17.20;67.00;;;;;;5104331;28;20058;-71
2023/10/14 11:55:25;;;;;;;2.75;0.57;;;17.20;67.70;;;;;;5117939;27;20513;-72
2023/10/14 11:57:53;;;;;;;2.20;0.50;;;17.20;68.10;;;;;;5117134;28;20051;-73
2023/10/14 12:00:20;;;;;;;3.25;0.60;;;17.10;68.30;;;;;;5107026;28;20109;-72
2023/10/14 12:02:47;;;;;;;1.60;0.60;;;16.90;66.60;;;;;;5117254;28;20026;-71
2023/10/14 12:05:16;;;;;;;3.42;0.50;;;16.90;67.70;;;;;;5120550;28;20438;-71
2023/10/14 12:07:47;;;;;;;2.40;0.40;;;16.80;66.20;;;;;;5123731;27;20016;-72
2023/10/14 12:10:13;;;;;;;2.03;0.50;;;16.70;67.10;;;;;;5127376;27;20030;-72
2023/10/14 12:12:39;;;;;;;1.73;0.38;;;16.60;66.90;;;;;;5107136;28;20095;-73
2023/10/14 12:15:09;;;;;;;2.10;0.38;;;16.60;67.20;;;;;;5118275;28;20565;-72
2023/10/14 12:17:36;;;;;;;2.40;0.70;;;16.60;67.30;;;;;;5119627;28;20023;-71
2023/10/14 12:20:10;;;;;;;0.90;0.30;;;16.80;68.70;;;;;;5120233;28;20073;-72
2023/10/14 12:22:36;;;;;;;2.25;0.30;;;17.10;69.10;;;;;;5120225;28;20024;-72
2023/10/14 12:25:02;;;;;;;1.77;0.50;;;17.20;67.20;;;;;;5121629;27;20054;-72
2023/10/14 12:27:28;;;;;;;2.92;0.50;;;17.30;65.50;;;;;;5109284;28;20115;-74
2023/10/14 12:29:54;;;;;;;3.50;0.60;;;17.30;66.10;;;;;;5118527;28;20047;-71
2023/10/14 12:32:20;;;;;;;2.08;0.70;;;17.20;65.60;;;;;;5119977;28;20106;-73
2023/10/14 12:34:48;;;;;;;2.67;0.63;;;17.00;67.40;;;;;;5119737;28;20059;-73
2023/10/14 12:37:24;;;;;;;4.03;0.68;;;16.80;71.10;;;;;;5119654;28;20027;-69
2023/10/14 12:40:04;;;;;;;2.13;0.52;;;16.60;71.70;;;;;;5112545;28;20115;-73
2023/10/14 12:42:47;;;;;;;1.77;0.30;;;16.40;72.50;;;;;;5119653;28;20494;-73
2023/10/14 12:45:14;;;;;;;;;;;16.40;73.90;;;;;;5101502;28;20058;-69
2023/10/14 12:47:46;;;;;;;2.58;0.60;;;16.50;76.40;;;;;;5101289;28;19904;-71
2023/10/14 12:50:13;;;;;;;1.55;0.60;;;16.60;76.10;;;;;;5100602;28;20023;-71
2023/10/14 12:52:40;;;;;;;2.22;0.50;;;16.70;75.80;;;;;;5119591;28;20027;-73
2023/10/14 12:55:17;;;;;;;2.58;0.50;;;16.80;75.10;;;;;;5119614;28;20028;-75
2023/10/14 12:57:44;;;;;;;3.40;0.65;;;17.00;75.60;;;;;;5119359;28;20426;-74
2023/10/14 13:00:17;;;;;;;2.53;0.75;;;17.20;75.10;;;;;;5128832;27;20043;-73
2023/10/14 13:02:45;;;;;;;4.57;0.50;;;17.20;73.90;;;;;;5119190;28;20107;-73
2023/10/14 13:05:14;;;;;;;4.10;0.70;;;17.10;72.70;;;;;;5119262;28;20024;-73
2023/10/14 13:07:40;;;;;;;2.58;0.60;;;17.20;71.70;;;;;;5117965;28;20035;-73
2023/10/14 13:10:08;;;;;;;3.33;0.57;;;17.20;69.20;;;;;;5129550;27;20027;-73
2023/10/14 13:12:34;;;;;;;2.90;0.60;;;17.10;69.70;;;;;;5122044;27;20011;-75
2023/10/14 13:15:04;;;;;;;2.08;0.52;;;17.20;70.10;;;;;;5100756;28;20034;-74
2023/10/14 13:17:35;;;;;;;1.30;0.63;;;17.40;70.10;;;;;;5100663;28;20087;-73
2023/10/14 13:20:01;;;;;;;2.03;0.60;;;17.30;66.90;;;;;;5118881;28;20034;-75